sensor_id;sensor_type;location;lat;lon;timestamp;P1;durP1;ratioP1;P2;durP2;ratioP2
25083;SDS011;13075;55.682;37.564;2022-08-16T00:01:14;13.88;;;7.53;;
25083;SDS011;13075;55.682;37.564;2022-08-16T00:03:40;16.45;;;9.15;;
25083;SDS011;13075;55.682;37.564;2022-08-16T00:06:06;14.38;;;8.70;;
25083;SDS011;13075;55.682;37.564;2022-08-16T00:08:32;16.85;;;9.52;;
25083;SDS011;13075;55.682;37.564;2022-08-16T00:10:57;19.25;;;8.48;;
25083;SDS011;13075;55.682;37.564;2022-08-16T00:13:23;13.65;;;8.85;;
25083;SDS011;13075;55.682;37.564;2022-08-16T00:15:48;14.43;;;8.27;;
25083;SDS011;13075;55.682;37.564;2022-08-16T00:18:16;11.68;;;7.65;;
25083;SDS011;13075;55.682;37.564;2022-08-16T00:20:43;12.48;;;7.47;;
25083;SDS011;13075;55.682;37.564;2022-08-16T00:23:11;13.30;;;7.75;;
25083;SDS011;13075;55.682;37.564;2022-08-16T00:25:37;18.10;;;9.05;;
25083;SDS011;13075;55.682;37.564;2022-08-16T00:28:03;12.00;;;6.75;;
25083;SDS011;13075;55.682;37.564;2022-08-16T00:30:29;14.73;;;7.28;;
25083;SDS011;13075;55.682;37.564;2022-08-16T00:32:56;14.40;;;7.82;;
25083;SDS011;13075;55.682;37.564;2022-08-16T00:35:24;13.93;;;7.63;;
25083;SDS011;13075;55.682;37.564;2022-08-16T00:37:52;10.95;;;8.20;;
25083;SDS011;13075;55.682;37.564;2022-08-16T00:40:29;19.17;;;9.27;;
25083;SDS011;13075;55.682;37.564;2022-08-16T00:43:08;13.30;;;8.77;;
25083;SDS011;13075;55.682;37.564;2022-08-16T00:46:02;13.93;;;7.90;;
25083;SDS011;13075;55.682;37.564;2022-08-16T00:48:30;9.52;;;6.97;;
25083;SDS011;13075;55.682;37.564;2022-08-16T00:50:56;12.82;;;8.15;;
25083;SDS011;13075;55.682;37.564;2022-08-16T00:53:22;28.83;;;9.07;;
25083;SDS011;13075;55.682;37.564;2022-08-16T00:55:49;8.55;;;6.53;;
25083;SDS011;13075;55.682;37.564;2022-08-16T00:58:19;17.25;;;7.00;;
25083;SDS011;13075;55.682;37.564;2022-08-16T01:03:25;12.82;;;7.50;;
25083;SDS011;13075;55.682;37.564;2022-08-16T01:05:52;13.60;;;7.07;;
25083;SDS011;13075;55.682;37.564;2022-08-16T01:08:19;13.07;;;7.13;;
25083;SDS011;13075;55.682;37.564;2022-08-16T01:10:47;14.70;;;7.90;;
25083;SDS011;13075;55.682;37.564;2022-08-16T01:13:15;11.70;;;6.32;;
25083;SDS011;13075;55.682;37.564;2022-08-16T01:16:30;16.13;;;7.47;;
25083;SDS011;13075;55.682;37.564;2022-08-16T01:18:42;18.92;;;8.18;;
25083;SDS011;13075;55.682;37.564;2022-08-16T01:21:25;9.20;;;6.50;;
25083;SDS011;13075;55.682;37.564;2022-08-16T01:26:53;13.52;;;7.00;;
25083;SDS011;13075;55.682;37.564;2022-08-16T01:29:24;10.45;;;6.80;;
25083;SDS011;13075;55.682;37.564;2022-08-16T01:31:55;11.07;;;7.50;;
25083;SDS011;13075;55.682;37.564;2022-08-16T01:34:21;18.42;;;7.75;;
25083;SDS011;13075;55.682;37.564;2022-08-16T01:36:47;18.15;;;7.25;;
25083;SDS011;13075;55.682;37.564;2022-08-16T01:39:15;16.35;;;7.47;;
25083;SDS011;13075;55.682;37.564;2022-08-16T01:41:42;10.95;;;7.22;;
25083;SDS011;13075;55.682;37.564;2022-08-16T01:44:08;14.23;;;6.97;;
25083;SDS011;13075;55.682;37.564;2022-08-16T01:49:15;9.45;;;6.40;;
25083;SDS011;13075;55.682;37.564;2022-08-16T01:51:55;11.07;;;6.78;;
25083;SDS011;13075;55.682;37.564;2022-08-16T01:54:43;13.63;;;6.47;;
25083;SDS011;13075;55.682;37.564;2022-08-16T01:57:10;10.05;;;6.65;;
25083;SDS011;13075;55.682;37.564;2022-08-16T01:59:36;12.65;;;7.43;;
25083;SDS011;13075;55.682;37.564;2022-08-16T02:02:03;10.57;;;6.47;;
25083;SDS011;13075;55.682;37.564;2022-08-16T02:04:31;8.48;;;6.32;;
25083;SDS011;13075;55.682;37.564;2022-08-16T02:06:59;12.05;;;6.70;;
25083;SDS011;13075;55.682;37.564;2022-08-16T02:09:28;23.42;;;6.40;;
25083;SDS011;13075;55.682;37.564;2022-08-16T02:11:55;16.23;;;6.63;;
25083;SDS011;13075;55.682;37.564;2022-08-16T02:14:23;9.45;;;7.13;;
25083;SDS011;13075;55.682;37.564;2022-08-16T02:16:51;10.70;;;6.85;;
25083;SDS011;13075;55.682;37.564;2022-08-16T02:19:17;15.13;;;6.30;;
25083;SDS011;13075;55.682;37.564;2022-08-16T02:21:48;11.10;;;8.20;;
25083;SDS011;13075;55.682;37.564;2022-08-16T02:24:16;10.57;;;6.15;;
25083;SDS011;13075;55.682;37.564;2022-08-16T02:26:43;12.90;;;6.13;;
25083;SDS011;13075;55.682;37.564;2022-08-16T02:29:08;8.52;;;5.85;;
25083;SDS011;13075;55.682;37.564;2022-08-16T02:31:34;13.60;;;6.30;;
25083;SDS011;13075;55.682;37.564;2022-08-16T02:33:59;11.52;;;6.20;;
25083;SDS011;13075;55.682;37.564;2022-08-16T02:36:34;13.32;;;6.50;;
25083;SDS011;13075;55.682;37.564;2022-08-16T02:39:00;14.07;;;5.45;;
25083;SDS011;13075;55.682;37.564;2022-08-16T02:41:26;13.25;;;6.82;;
25083;SDS011;13075;55.682;37.564;2022-08-16T02:43:52;19.98;;;6.10;;
25083;SDS011;13075;55.682;37.564;2022-08-16T02:46:18;18.00;;;6.90;;
25083;SDS011;13075;55.682;37.564;2022-08-16T02:48:43;16.58;;;7.40;;
25083;SDS011;13075;55.682;37.564;2022-08-16T02:51:09;13.27;;;6.70;;
25083;SDS011;13075;55.682;37.564;2022-08-16T02:53:39;9.43;;;5.70;;
25083;SDS011;13075;55.682;37.564;2022-08-16T02:56:06;10.82;;;6.25;;
25083;SDS011;13075;55.682;37.564;2022-08-16T02:58:37;15.85;;;8.65;;
25083;SDS011;13075;55.682;37.564;2022-08-16T03:01:03;12.00;;;6.50;;
25083;SDS011;13075;55.682;37.564;2022-08-16T03:03:29;11.48;;;6.00;;
25083;SDS011;13075;55.682;37.564;2022-08-16T03:05:54;11.35;;;6.35;;
25083;SDS011;13075;55.682;37.564;2022-08-16T03:08:22;12.07;;;5.65;;
25083;SDS011;13075;55.682;37.564;2022-08-16T03:10:49;10.80;;;5.75;;
25083;SDS011;13075;55.682;37.564;2022-08-16T03:13:15;13.05;;;6.18;;
25083;SDS011;13075;55.682;37.564;2022-08-16T03:15:43;10.23;;;6.13;;
25083;SDS011;13075;55.682;37.564;2022-08-16T03:18:10;18.02;;;7.05;;
25083;SDS011;13075;55.682;37.564;2022-08-16T03:20:36;12.65;;;6.10;;
25083;SDS011;13075;55.682;37.564;2022-08-16T03:23:03;11.00;;;5.75;;
25083;SDS011;13075;55.682;37.564;2022-08-16T03:25:30;11.32;;;6.28;;
25083;SDS011;13075;55.682;37.564;2022-08-16T03:28:00;15.70;;;5.70;;
25083;SDS011;13075;55.682;37.564;2022-08-16T03:30:28;14.60;;;5.78;;
25083;SDS011;13075;55.682;37.564;2022-08-16T03:33:01;8.60;;;5.32;;
25083;SDS011;13075;55.682;37.564;2022-08-16T03:35:36;6.78;;;5.57;;
25083;SDS011;13075;55.682;37.564;2022-08-16T03:38:15;12.60;;;6.97;;
25083;SDS011;13075;55.682;37.564;2022-08-16T03:40:47;8.95;;;5.65;;
25083;SDS011;13075;55.682;37.564;2022-08-16T03:43:12;11.10;;;7.28;;
25083;SDS011;13075;55.682;37.564;2022-08-16T03:45:39;6.75;;;5.63;;
25083;SDS011;13075;55.682;37.564;2022-08-16T03:48:06;13.30;;;7.43;;
25083;SDS011;13075;55.682;37.564;2022-08-16T03:50:34;12.77;;;8.00;;
25083;SDS011;13075;55.682;37.564;2022-08-16T03:53:00;11.02;;;5.50;;
25083;SDS011;13075;55.682;37.564;2022-08-16T03:55:27;11.07;;;5.18;;
25083;SDS011;13075;55.682;37.564;2022-08-16T03:57:53;8.68;;;5.78;;
25083;SDS011;13075;55.682;37.564;2022-08-16T04:00:24;14.73;;;7.18;;
25083;SDS011;13075;55.682;37.564;2022-08-16T04:02:54;6.68;;;5.78;;
25083;SDS011;13075;55.682;37.564;2022-08-16T04:05:21;7.88;;;5.97;;
25083;SDS011;13075;55.682;37.564;2022-08-16T04:07:47;17.55;;;6.47;;
25083;SDS011;13075;55.682;37.564;2022-08-16T04:10:13;8.32;;;5.93;;
25083;SDS011;13075;55.682;37.564;2022-08-16T04:12:40;12.73;;;5.28;;
25083;SDS011;13075;55.682;37.564;2022-08-16T04:15:07;13.93;;;6.47;;
25083;SDS011;13075;55.682;37.564;2022-08-16T04:17:40;10.57;;;5.15;;
25083;SDS011;13075;55.682;37.564;2022-08-16T04:20:07;10.27;;;5.75;;
25083;SDS011;13075;55.682;37.564;2022-08-16T04:22:35;10.65;;;6.38;;
25083;SDS011;13075;55.682;37.564;2022-08-16T04:25:04;17.35;;;6.30;;
25083;SDS011;13075;55.682;37.564;2022-08-16T04:27:35;9.27;;;6.22;;
25083;SDS011;13075;55.682;37.564;2022-08-16T04:30:01;11.35;;;5.55;;
25083;SDS011;13075;55.682;37.564;2022-08-16T04:32:35;8.38;;;5.40;;
25083;SDS011;13075;55.682;37.564;2022-08-16T04:35:05;15.07;;;7.60;;
25083;SDS011;13075;55.682;37.564;2022-08-16T04:37:35;12.82;;;7.38;;
25083;SDS011;13075;55.682;37.564;2022-08-16T04:40:10;11.77;;;6.32;;
25083;SDS011;13075;55.682;37.564;2022-08-16T04:42:37;8.15;;;5.45;;
25083;SDS011;13075;55.682;37.564;2022-08-16T04:45:05;18.15;;;6.72;;
25083;SDS011;13075;55.682;37.564;2022-08-16T04:47:33;10.00;;;5.45;;
25083;SDS011;13075;55.682;37.564;2022-08-16T04:50:04;11.95;;;5.72;;
25083;SDS011;13075;55.682;37.564;2022-08-16T04:52:32;12.85;;;5.18;;
25083;SDS011;13075;55.682;37.564;2022-08-16T04:54:58;15.35;;;6.75;;
25083;SDS011;13075;55.682;37.564;2022-08-16T04:57:24;10.73;;;5.97;;
25083;SDS011;13075;55.682;37.564;2022-08-16T04:59:50;7.38;;;5.20;;
25083;SDS011;13075;55.682;37.564;2022-08-16T05:02:16;11.52;;;5.45;;
25083;SDS011;13075;55.682;37.564;2022-08-16T05:04:42;14.98;;;6.35;;
25083;SDS011;13075;55.682;37.564;2022-08-16T05:07:08;13.75;;;6.10;;
25083;SDS011;13075;55.682;37.564;2022-08-16T05:09:56;10.27;;;6.10;;
25083;SDS011;13075;55.682;37.564;2022-08-16T05:12:22;16.33;;;8.43;;
25083;SDS011;13075;55.682;37.564;2022-08-16T05:14:48;8.77;;;6.03;;
25083;SDS011;13075;55.682;37.564;2022-08-16T05:17:19;12.65;;;6.28;;
25083;SDS011;13075;55.682;37.564;2022-08-16T05:19:45;9.02;;;5.97;;
25083;SDS011;13075;55.682;37.564;2022-08-16T05:22:14;10.27;;;6.63;;
25083;SDS011;13075;55.682;37.564;2022-08-16T05:24:41;9.50;;;5.80;;
25083;SDS011;13075;55.682;37.564;2022-08-16T05:27:07;8.65;;;5.53;;
25083;SDS011;13075;55.682;37.564;2022-08-16T05:29:33;11.27;;;6.22;;
25083;SDS011;13075;55.682;37.564;2022-08-16T05:32:05;11.30;;;6.00;;
25083;SDS011;13075;55.682;37.564;2022-08-16T05:34:31;9.85;;;6.15;;
25083;SDS011;13075;55.682;37.564;2022-08-16T05:36:57;10.60;;;5.40;;
25083;SDS011;13075;55.682;37.564;2022-08-16T05:39:28;9.32;;;5.43;;
25083;SDS011;13075;55.682;37.564;2022-08-16T05:41:55;11.77;;;5.85;;
25083;SDS011;13075;55.682;37.564;2022-08-16T05:44:22;12.10;;;7.93;;
25083;SDS011;13075;55.682;37.564;2022-08-16T05:46:49;17.45;;;7.32;;
25083;SDS011;13075;55.682;37.564;2022-08-16T05:49:17;10.27;;;5.38;;
25083;SDS011;13075;55.682;37.564;2022-08-16T05:51:43;10.77;;;6.25;;
25083;SDS011;13075;55.682;37.564;2022-08-16T05:54:12;17.45;;;7.20;;
25083;SDS011;13075;55.682;37.564;2022-08-16T05:56:43;10.65;;;6.05;;
25083;SDS011;13075;55.682;37.564;2022-08-16T05:59:10;13.00;;;6.10;;
25083;SDS011;13075;55.682;37.564;2022-08-16T06:01:38;6.82;;;5.47;;
25083;SDS011;13075;55.682;37.564;2022-08-16T06:04:05;12.52;;;6.05;;
25083;SDS011;13075;55.682;37.564;2022-08-16T06:06:40;14.65;;;6.20;;
25083;SDS011;13075;55.682;37.564;2022-08-16T06:09:07;13.68;;;6.47;;
25083;SDS011;13075;55.682;37.564;2022-08-16T06:11:34;16.13;;;6.57;;
25083;SDS011;13075;55.682;37.564;2022-08-16T06:14:01;14.90;;;6.53;;
25083;SDS011;13075;55.682;37.564;2022-08-16T06:16:35;10.43;;;6.93;;
25083;SDS011;13075;55.682;37.564;2022-08-16T06:19:01;11.38;;;5.47;;
25083;SDS011;13075;55.682;37.564;2022-08-16T06:21:27;18.85;;;6.47;;
25083;SDS011;13075;55.682;37.564;2022-08-16T06:23:59;11.32;;;5.97;;
25083;SDS011;13075;55.682;37.564;2022-08-16T06:26:25;10.98;;;5.85;;
25083;SDS011;13075;55.682;37.564;2022-08-16T06:28:50;12.60;;;5.70;;
25083;SDS011;13075;55.682;37.564;2022-08-16T06:31:23;13.18;;;5.68;;
25083;SDS011;13075;55.682;37.564;2022-08-16T06:33:49;13.07;;;6.22;;
25083;SDS011;13075;55.682;37.564;2022-08-16T06:36:17;9.98;;;4.95;;
25083;SDS011;13075;55.682;37.564;2022-08-16T06:39:01;7.55;;;5.20;;
25083;SDS011;13075;55.682;37.564;2022-08-16T06:41:42;22.00;;;8.02;;
25083;SDS011;13075;55.682;37.564;2022-08-16T06:44:19;10.93;;;6.20;;
25083;SDS011;13075;55.682;37.564;2022-08-16T06:46:44;10.25;;;5.80;;
25083;SDS011;13075;55.682;37.564;2022-08-16T06:49:15;8.43;;;4.93;;
25083;SDS011;13075;55.682;37.564;2022-08-16T06:51:41;22.77;;;6.88;;
25083;SDS011;13075;55.682;37.564;2022-08-16T06:54:07;11.82;;;5.00;;
25083;SDS011;13075;55.682;37.564;2022-08-16T06:56:34;8.63;;;6.22;;
25083;SDS011;13075;55.682;37.564;2022-08-16T06:59:06;12.75;;;5.75;;
25083;SDS011;13075;55.682;37.564;2022-08-16T07:01:35;11.02;;;5.32;;
25083;SDS011;13075;55.682;37.564;2022-08-16T07:04:01;6.93;;;4.30;;
25083;SDS011;13075;55.682;37.564;2022-08-16T07:06:32;9.15;;;5.10;;
25083;SDS011;13075;55.682;37.564;2022-08-16T07:09:03;8.35;;;5.13;;
25083;SDS011;13075;55.682;37.564;2022-08-16T07:11:32;11.18;;;5.35;;
25083;SDS011;13075;55.682;37.564;2022-08-16T07:13:58;9.07;;;4.75;;
25083;SDS011;13075;55.682;37.564;2022-08-16T07:16:28;13.57;;;4.65;;
25083;SDS011;13075;55.682;37.564;2022-08-16T07:18:55;9.23;;;4.20;;
25083;SDS011;13075;55.682;37.564;2022-08-16T07:21:23;5.85;;;4.55;;
25083;SDS011;13075;55.682;37.564;2022-08-16T07:23:50;9.35;;;3.80;;
25083;SDS011;13075;55.682;37.564;2022-08-16T07:26:20;9.18;;;4.15;;
25083;SDS011;13075;55.682;37.564;2022-08-16T07:28:48;4.53;;;3.47;;
25083;SDS011;13075;55.682;37.564;2022-08-16T07:31:15;10.57;;;4.70;;
25083;SDS011;13075;55.682;37.564;2022-08-16T07:33:42;6.93;;;4.10;;
25083;SDS011;13075;55.682;37.564;2022-08-16T07:36:10;5.18;;;3.30;;
25083;SDS011;13075;55.682;37.564;2022-08-16T07:38:43;7.20;;;3.95;;
25083;SDS011;13075;55.682;37.564;2022-08-16T07:41:09;9.93;;;4.95;;
25083;SDS011;13075;55.682;37.564;2022-08-16T07:43:38;6.32;;;3.47;;
25083;SDS011;13075;55.682;37.564;2022-08-16T07:46:04;5.88;;;4.43;;
25083;SDS011;13075;55.682;37.564;2022-08-16T07:48:35;6.90;;;4.47;;
25083;SDS011;13075;55.682;37.564;2022-08-16T07:51:01;6.80;;;3.97;;
25083;SDS011;13075;55.682;37.564;2022-08-16T07:53:29;8.10;;;3.78;;
25083;SDS011;13075;55.682;37.564;2022-08-16T07:55:58;17.70;;;3.80;;
25083;SDS011;13075;55.682;37.564;2022-08-16T07:58:29;4.87;;;3.53;;
25083;SDS011;13075;55.682;37.564;2022-08-16T08:00:55;5.53;;;3.42;;
25083;SDS011;13075;55.682;37.564;2022-08-16T08:03:22;4.20;;;3.45;;
25083;SDS011;13075;55.682;37.564;2022-08-16T08:05:49;6.25;;;3.67;;
25083;SDS011;13075;55.682;37.564;2022-08-16T08:08:15;9.50;;;4.13;;
25083;SDS011;13075;55.682;37.564;2022-08-16T08:10:42;4.68;;;3.38;;
25083;SDS011;13075;55.682;37.564;2022-08-16T08:13:07;7.43;;;3.43;;
25083;SDS011;13075;55.682;37.564;2022-08-16T08:15:33;7.22;;;4.00;;
25083;SDS011;13075;55.682;37.564;2022-08-16T08:18:00;5.57;;;3.95;;
25083;SDS011;13075;55.682;37.564;2022-08-16T08:20:30;5.50;;;3.60;;
25083;SDS011;13075;55.682;37.564;2022-08-16T08:22:58;4.07;;;3.72;;
25083;SDS011;13075;55.682;37.564;2022-08-16T08:25:25;5.90;;;3.78;;
25083;SDS011;13075;55.682;37.564;2022-08-16T08:27:51;8.18;;;4.00;;
25083;SDS011;13075;55.682;37.564;2022-08-16T08:30:18;4.25;;;3.85;;
25083;SDS011;13075;55.682;37.564;2022-08-16T08:32:45;9.70;;;4.63;;
25083;SDS011;13075;55.682;37.564;2022-08-16T08:35:11;6.85;;;3.72;;
25083;SDS011;13075;55.682;37.564;2022-08-16T08:37:38;4.13;;;3.45;;
25083;SDS011;13075;55.682;37.564;2022-08-16T08:40:06;6.45;;;4.10;;
25083;SDS011;13075;55.682;37.564;2022-08-16T08:42:35;6.15;;;4.28;;
25083;SDS011;13075;55.682;37.564;2022-08-16T08:45:03;4.43;;;4.03;;
25083;SDS011;13075;55.682;37.564;2022-08-16T08:47:29;7.75;;;3.55;;
25083;SDS011;13075;55.682;37.564;2022-08-16T08:49:56;17.17;;;4.63;;
25083;SDS011;13075;55.682;37.564;2022-08-16T08:52:24;7.88;;;3.83;;
25083;SDS011;13075;55.682;37.564;2022-08-16T08:54:50;5.63;;;3.42;;
25083;SDS011;13075;55.682;37.564;2022-08-16T08:57:17;8.95;;;4.50;;
25083;SDS011;13075;55.682;37.564;2022-08-16T09:00:09;4.53;;;3.72;;
25083;SDS011;13075;55.682;37.564;2022-08-16T09:02:37;7.05;;;4.07;;
25083;SDS011;13075;55.682;37.564;2022-08-16T09:05:03;10.88;;;4.88;;
25083;SDS011;13075;55.682;37.564;2022-08-16T09:07:29;7.13;;;4.32;;
25083;SDS011;13075;55.682;37.564;2022-08-16T09:09:56;11.45;;;4.57;;
25083;SDS011;13075;55.682;37.564;2022-08-16T09:12:22;5.93;;;3.65;;
25083;SDS011;13075;55.682;37.564;2022-08-16T09:14:58;5.30;;;4.10;;
25083;SDS011;13075;55.682;37.564;2022-08-16T09:17:26;10.82;;;3.78;;
25083;SDS011;13075;55.682;37.564;2022-08-16T09:19:53;19.45;;;4.13;;
25083;SDS011;13075;55.682;37.564;2022-08-16T09:22:23;4.53;;;3.75;;
25083;SDS011;13075;55.682;37.564;2022-08-16T09:24:51;7.75;;;3.53;;
25083;SDS011;13075;55.682;37.564;2022-08-16T09:27:16;6.78;;;3.22;;
25083;SDS011;13075;55.682;37.564;2022-08-16T09:29:43;8.13;;;4.07;;
25083;SDS011;13075;55.682;37.564;2022-08-16T09:32:09;6.82;;;4.10;;
25083;SDS011;13075;55.682;37.564;2022-08-16T09:34:35;5.35;;;4.05;;
25083;SDS011;13075;55.682;37.564;2022-08-16T09:37:01;7.53;;;4.07;;
25083;SDS011;13075;55.682;37.564;2022-08-16T09:39:27;4.88;;;4.03;;
25083;SDS011;13075;55.682;37.564;2022-08-16T09:41:55;5.38;;;4.18;;
25083;SDS011;13075;55.682;37.564;2022-08-16T09:44:24;6.00;;;3.88;;
25083;SDS011;13075;55.682;37.564;2022-08-16T09:46:51;9.10;;;5.25;;
25083;SDS011;13075;55.682;37.564;2022-08-16T09:49:19;9.68;;;5.72;;
25083;SDS011;13075;55.682;37.564;2022-08-16T09:51:45;11.00;;;4.15;;
25083;SDS011;13075;55.682;37.564;2022-08-16T09:54:12;7.03;;;4.13;;
25083;SDS011;13075;55.682;37.564;2022-08-16T09:56:39;7.97;;;4.38;;
25083;SDS011;13075;55.682;37.564;2022-08-16T09:59:06;6.00;;;4.10;;
25083;SDS011;13075;55.682;37.564;2022-08-16T10:01:37;9.30;;;4.20;;
25083;SDS011;13075;55.682;37.564;2022-08-16T10:04:04;7.03;;;4.18;;
25083;SDS011;13075;55.682;37.564;2022-08-16T10:06:32;7.43;;;4.07;;
25083;SDS011;13075;55.682;37.564;2022-08-16T10:08:57;8.48;;;3.90;;
25083;SDS011;13075;55.682;37.564;2022-08-16T10:11:23;8.35;;;4.32;;
25083;SDS011;13075;55.682;37.564;2022-08-16T10:14:07;10.40;;;3.83;;
25083;SDS011;13075;55.682;37.564;2022-08-16T10:16:33;7.90;;;5.07;;
25083;SDS011;13075;55.682;37.564;2022-08-16T10:18:59;8.60;;;4.78;;
25083;SDS011;13075;55.682;37.564;2022-08-16T10:21:25;13.98;;;4.88;;
25083;SDS011;13075;55.682;37.564;2022-08-16T10:23:52;7.07;;;4.43;;
25083;SDS011;13075;55.682;37.564;2022-08-16T10:26:19;8.38;;;4.45;;
25083;SDS011;13075;55.682;37.564;2022-08-16T10:28:46;7.90;;;4.93;;
25083;SDS011;13075;55.682;37.564;2022-08-16T10:31:11;11.82;;;4.70;;
25083;SDS011;13075;55.682;37.564;2022-08-16T10:33:38;13.15;;;4.93;;
25083;SDS011;13075;55.682;37.564;2022-08-16T10:36:04;5.25;;;4.20;;
25083;SDS011;13075;55.682;37.564;2022-08-16T10:38:33;11.65;;;4.97;;
25083;SDS011;13075;55.682;37.564;2022-08-16T10:41:00;6.82;;;4.18;;
25083;SDS011;13075;55.682;37.564;2022-08-16T10:43:26;12.20;;;5.18;;
25083;SDS011;13075;55.682;37.564;2022-08-16T10:45:52;8.13;;;4.85;;
25083;SDS011;13075;55.682;37.564;2022-08-16T10:48:18;7.30;;;4.40;;
25083;SDS011;13075;55.682;37.564;2022-08-16T10:50:44;6.38;;;4.80;;
25083;SDS011;13075;55.682;37.564;2022-08-16T10:53:09;12.40;;;4.82;;
25083;SDS011;13075;55.682;37.564;2022-08-16T10:55:36;7.57;;;5.43;;
25083;SDS011;13075;55.682;37.564;2022-08-16T10:58:04;7.60;;;5.35;;
25083;SDS011;13075;55.682;37.564;2022-08-16T11:00:33;8.68;;;4.78;;
25083;SDS011;13075;55.682;37.564;2022-08-16T11:03:00;10.77;;;4.50;;
25083;SDS011;13075;55.682;37.564;2022-08-16T11:05:29;11.25;;;4.90;;
25083;SDS011;13075;55.682;37.564;2022-08-16T11:08:00;11.90;;;4.95;;
25083;SDS011;13075;55.682;37.564;2022-08-16T11:10:27;9.32;;;4.70;;
25083;SDS011;13075;55.682;37.564;2022-08-16T11:12:56;7.72;;;5.40;;
25083;SDS011;13075;55.682;37.564;2022-08-16T11:15:22;10.35;;;4.68;;
25083;SDS011;13075;55.682;37.564;2022-08-16T11:17:49;7.32;;;5.00;;
25083;SDS011;13075;55.682;37.564;2022-08-16T11:20:16;12.70;;;5.32;;
25083;SDS011;13075;55.682;37.564;2022-08-16T11:22:43;12.98;;;5.15;;
25083;SDS011;13075;55.682;37.564;2022-08-16T11:25:12;7.05;;;5.05;;
25083;SDS011;13075;55.682;37.564;2022-08-16T11:27:39;7.72;;;5.00;;
25083;SDS011;13075;55.682;37.564;2022-08-16T11:30:06;9.45;;;4.95;;
25083;SDS011;13075;55.682;37.564;2022-08-16T11:32:33;14.68;;;5.68;;
25083;SDS011;13075;55.682;37.564;2022-08-16T11:35:07;16.05;;;5.18;;
25083;SDS011;13075;55.682;37.564;2022-08-16T11:37:35;14.35;;;6.13;;
25083;SDS011;13075;55.682;37.564;2022-08-16T11:40:03;9.63;;;5.68;;
25083;SDS011;13075;55.682;37.564;2022-08-16T11:42:30;8.23;;;6.07;;
25083;SDS011;13075;55.682;37.564;2022-08-16T11:44:56;7.75;;;4.93;;
25083;SDS011;13075;55.682;37.564;2022-08-16T11:47:22;7.28;;;4.75;;
25083;SDS011;13075;55.682;37.564;2022-08-16T11:49:47;7.30;;;5.20;;
25083;SDS011;13075;55.682;37.564;2022-08-16T11:52:13;7.38;;;4.53;;
25083;SDS011;13075;55.682;37.564;2022-08-16T11:54:41;6.05;;;4.65;;
25083;SDS011;13075;55.682;37.564;2022-08-16T11:57:08;10.30;;;6.38;;
25083;SDS011;13075;55.682;37.564;2022-08-16T11:59:35;5.68;;;4.55;;
25083;SDS011;13075;55.682;37.564;2022-08-16T12:02:01;4.93;;;4.40;;
25083;SDS011;13075;55.682;37.564;2022-08-16T12:04:27;7.43;;;4.40;;
25083;SDS011;13075;55.682;37.564;2022-08-16T12:06:53;7.68;;;4.85;;
25083;SDS011;13075;55.682;37.564;2022-08-16T12:09:19;8.00;;;5.03;;
25083;SDS011;13075;55.682;37.564;2022-08-16T12:11:45;7.45;;;4.00;;
25083;SDS011;13075;55.682;37.564;2022-08-16T12:14:10;11.43;;;4.95;;
25083;SDS011;13075;55.682;37.564;2022-08-16T12:16:36;8.50;;;4.80;;
25083;SDS011;13075;55.682;37.564;2022-08-16T12:19:03;7.13;;;5.53;;
25083;SDS011;13075;55.682;37.564;2022-08-16T12:21:31;10.82;;;6.93;;
25083;SDS011;13075;55.682;37.564;2022-08-16T12:23:57;4.80;;;4.25;;
25083;SDS011;13075;55.682;37.564;2022-08-16T12:26:22;7.88;;;4.60;;
25083;SDS011;13075;55.682;37.564;2022-08-16T12:28:48;7.10;;;5.30;;
25083;SDS011;13075;55.682;37.564;2022-08-16T12:31:15;12.93;;;5.40;;
25083;SDS011;13075;55.682;37.564;2022-08-16T12:33:41;8.55;;;5.50;;
25083;SDS011;13075;55.682;37.564;2022-08-16T12:36:07;12.57;;;5.60;;
25083;SDS011;13075;55.682;37.564;2022-08-16T12:38:33;9.32;;;4.47;;
25083;SDS011;13075;55.682;37.564;2022-08-16T12:40:59;9.52;;;4.95;;
25083;SDS011;13075;55.682;37.564;2022-08-16T12:43:25;9.90;;;5.55;;
25083;SDS011;13075;55.682;37.564;2022-08-16T12:45:52;8.82;;;4.45;;
25083;SDS011;13075;55.682;37.564;2022-08-16T12:48:19;11.00;;;5.05;;
25083;SDS011;13075;55.682;37.564;2022-08-16T12:51:07;10.60;;;5.35;;
25083;SDS011;13075;55.682;37.564;2022-08-16T12:53:35;10.20;;;4.43;;
25083;SDS011;13075;55.682;37.564;2022-08-16T12:56:02;6.40;;;4.90;;
25083;SDS011;13075;55.682;37.564;2022-08-16T12:58:28;8.57;;;6.50;;
25083;SDS011;13075;55.682;37.564;2022-08-16T13:00:55;6.25;;;4.90;;
25083;SDS011;13075;55.682;37.564;2022-08-16T13:03:21;6.78;;;5.75;;
25083;SDS011;13075;55.682;37.564;2022-08-16T13:05:47;11.18;;;4.72;;
25083;SDS011;13075;55.682;37.564;2022-08-16T13:08:16;8.75;;;5.40;;
25083;SDS011;13075;55.682;37.564;2022-08-16T13:10:44;10.95;;;5.55;;
25083;SDS011;13075;55.682;37.564;2022-08-16T13:13:13;17.25;;;6.05;;
25083;SDS011;13075;55.682;37.564;2022-08-16T13:15:49;8.23;;;5.93;;
25083;SDS011;13075;55.682;37.564;2022-08-16T13:18:19;11.07;;;5.47;;
25083;SDS011;13075;55.682;37.564;2022-08-16T13:20:47;12.30;;;6.68;;
25083;SDS011;13075;55.682;37.564;2022-08-16T13:23:13;8.43;;;5.28;;
25083;SDS011;13075;55.682;37.564;2022-08-16T13:25:40;8.23;;;5.85;;
25083;SDS011;13075;55.682;37.564;2022-08-16T13:28:08;10.05;;;5.55;;
25083;SDS011;13075;55.682;37.564;2022-08-16T13:30:37;8.48;;;5.45;;
25083;SDS011;13075;55.682;37.564;2022-08-16T13:33:05;7.93;;;5.65;;
25083;SDS011;13075;55.682;37.564;2022-08-16T13:35:31;8.55;;;6.25;;
25083;SDS011;13075;55.682;37.564;2022-08-16T13:37:58;10.23;;;5.43;;
25083;SDS011;13075;55.682;37.564;2022-08-16T13:40:24;7.72;;;5.55;;
25083;SDS011;13075;55.682;37.564;2022-08-16T13:42:53;6.97;;;6.28;;
25083;SDS011;13075;55.682;37.564;2022-08-16T13:45:18;10.52;;;6.63;;
25083;SDS011;13075;55.682;37.564;2022-08-16T13:47:44;9.27;;;7.35;;
25083;SDS011;13075;55.682;37.564;2022-08-16T13:50:10;7.53;;;6.35;;
25083;SDS011;13075;55.682;37.564;2022-08-16T13:52:37;9.93;;;6.80;;
25083;SDS011;13075;55.682;37.564;2022-08-16T13:55:03;8.25;;;5.97;;
25083;SDS011;13075;55.682;37.564;2022-08-16T13:57:29;7.28;;;6.07;;
25083;SDS011;13075;55.682;37.564;2022-08-16T13:59:55;9.77;;;5.40;;
25083;SDS011;13075;55.682;37.564;2022-08-16T14:02:20;9.93;;;5.38;;
25083;SDS011;13075;55.682;37.564;2022-08-16T14:04:46;7.93;;;5.82;;
25083;SDS011;13075;55.682;37.564;2022-08-16T14:07:13;8.52;;;6.35;;
25083;SDS011;13075;55.682;37.564;2022-08-16T14:09:40;11.60;;;7.38;;
25083;SDS011;13075;55.682;37.564;2022-08-16T14:15:07;10.23;;;6.60;;
25083;SDS011;13075;55.682;37.564;2022-08-16T14:17:36;7.07;;;6.38;;
25083;SDS011;13075;55.682;37.564;2022-08-16T14:20:01;8.65;;;6.47;;
25083;SDS011;13075;55.682;37.564;2022-08-16T14:22:30;12.30;;;6.03;;
25083;SDS011;13075;55.682;37.564;2022-08-16T14:25:00;7.55;;;6.75;;
25083;SDS011;13075;55.682;37.564;2022-08-16T14:27:27;12.95;;;6.75;;
25083;SDS011;13075;55.682;37.564;2022-08-16T14:29:54;16.75;;;6.28;;
25083;SDS011;13075;55.682;37.564;2022-08-16T14:32:23;12.63;;;7.53;;
25083;SDS011;13075;55.682;37.564;2022-08-16T14:34:50;10.32;;;6.60;;
25083;SDS011;13075;55.682;37.564;2022-08-16T14:37:16;8.85;;;6.75;;
25083;SDS011;13075;55.682;37.564;2022-08-16T14:39:42;13.20;;;7.28;;
25083;SDS011;13075;55.682;37.564;2022-08-16T14:42:09;17.73;;;7.80;;
25083;SDS011;13075;55.682;37.564;2022-08-16T14:44:38;12.82;;;9.02;;